Time;durP1;ratioP1;P1;durP2;ratioP2;P2;SDS_P1;SDS_P2;PMS_P1;PMS_P2;Temp;Humidity;BMP_temperature;BMP_pressure;BME280_temperature;BME280_humidity;BME280_pressure;Samples;Min_cycle;Max_cycle;Signal;HPM_P1;HPM_P2
2021/05/07 00:01:41;;;;;;;9.73;8.53;;;;;;;10.47;83.90;99123.50;2865290;81;21180;-58
2021/05/07 00:05:53;;;;;;;8.03;6.28;;;;;;;10.50;83.99;99122.38;2858316;82;21164;-58
2021/05/07 00:09:51;;;;;;;8.88;7.35;;;;;;;10.42;83.67;99113.35;2844980;82;21148;-57
2021/05/07 00:13:56;;;;;;;9.75;5.72;;;;;;;10.39;84.25;99106.95;2850012;81;21154;-57
2021/05/07 00:18:00;;;;;;;;;;;;;;;10.36;83.87;99096.64;2885672;82;21116;-57
2021/05/07 00:22:06;;;;;;;9.65;7.53;;;;;;;10.30;83.62;99087.95;2850357;82;20208;-57
2021/05/07 00:26:11;;;;;;;6.58;4.35;;;;;;;10.31;84.26;99084.31;2845334;83;21151;-57
2021/05/07 00:30:17;;;;;;;8.03;6.10;;;;;;;10.46;84.33;99081.14;2887851;80;21626;-58
2021/05/07 00:34:20;;;;;;;11.18;7.35;;;;;;;10.54;83.79;99067.89;2894393;82;21210;-58
2021/05/07 00:38:23;;;;;;;7.50;6.35;;;;;;;10.55;83.79;99065.57;2894550;82;21132;-58
2021/05/07 00:42:26;;;;;;;9.40;6.70;;;;;;;10.62;83.82;99061.80;2894497;82;21563;-58
2021/05/07 00:46:30;;;;;;;10.72;7.78;;;;;;;10.63;83.68;99053.67;2894339;81;21562;-58
2021/05/07 00:50:37;;;;;;;11.30;9.63;;;;;;;10.55;83.58;99049.62;2894268;81;21140;-58
2021/05/07 00:54:41;;;;;;;19.50;10.20;;;;;;;10.47;83.94;99047.73;2894285;80;21132;-58
2021/05/07 00:58:47;;;;;;;12.95;10.20;;;;;;;10.41;84.25;99047.85;2893989;82;21156;-58
2021/05/07 01:02:52;;;;;;;15.68;10.90;;;;;;;10.32;84.50;99032.81;2902177;81;21127;-58
2021/05/07 01:06:58;;;;;;;16.50;12.55;;;;;;;10.23;84.76;99033.77;2917337;81;21471;-57
2021/05/07 01:11:02;;;;;;;16.00;11.07;;;;;;;10.14;84.93;99026.22;2917934;81;21160;-58
2021/05/07 01:15:19;;;;;;;16.95;10.45;;;;;;;9.99;84.80;99034.73;2917631;81;21104;-58
2021/05/07 01:19:23;;;;;;;12.78;9.93;;;;;;;9.85;85.57;99026.81;2917326;81;21167;-58
2021/05/07 01:23:27;;;;;;;15.93;10.53;;;;;;;9.76;86.39;99026.88;2917822;81;21089;-58
2021/05/07 01:27:37;;;;;;;11.40;6.97;;;;;;;9.73;86.36;99025.36;2917775;80;21116;-57
2021/05/07 01:31:45;;;;;;;9.83;6.55;;;;;;;9.64;85.41;99022.30;2917911;81;21145;-57
2021/05/07 01:35:49;;;;;;;12.90;6.72;;;;;;;9.53;85.45;99016.20;2907819;81;21203;-58
2021/05/07 01:39:52;;;;;;;9.93;6.22;;;;;;;9.44;85.36;99011.81;2887032;81;21112;-57
2021/05/07 01:43:57;;;;;;;7.25;5.28;;;;;;;9.38;85.46;99009.25;2868555;81;21116;-58
2021/05/07 01:48:01;;;;;;;5.83;4.17;;;;;;;9.35;85.11;99006.91;2917722;81;21116;-57
2021/05/07 01:52:06;;;;;;;4.92;3.83;;;;;;;9.35;84.87;99002.08;2917676;81;21116;-57
2021/05/07 01:56:08;;;;;;;7.25;4.10;;;;;;;9.26;84.64;99002.00;2917614;81;21775;-57
2021/05/07 02:00:17;;;;;;;4.12;3.02;;;;;;;9.24;84.82;99003.97;2917746;81;21084;-57
2021/05/07 02:04:22;;;;;;;5.62;3.30;;;;;;;9.25;84.18;99000.33;2902081;81;21077;-57
2021/05/07 02:08:27;;;;;;;3.85;3.33;;;;;;;9.23;84.18;98998.80;2894459;81;21586;-57
2021/05/07 02:12:32;;;;;;;4.20;2.63;;;;;;;9.20;83.93;99000.42;2894457;81;21073;-57
2021/05/07 02:16:36;;;;;;;3.65;3.20;;;;;;;9.18;83.94;99000.56;2894211;82;21109;-58
2021/05/07 02:20:40;;;;;;;4.35;3.10;;;;;;;9.17;83.73;98994.09;2894155;80;21177;-58
2021/05/07 02:24:43;;;;;;;5.80;3.02;;;;;;;9.17;83.85;98998.89;2894148;82;21133;-57
2021/05/07 02:28:48;;;;;;;3.15;2.85;;;;;;;9.17;83.89;98993.59;2894434;82;21105;-58
2021/05/07 02:32:51;;;;;;;4.28;2.58;;;;;;;9.16;83.96;98992.42;2893992;82;21144;-58
2021/05/07 02:36:56;;;;;;;3.80;3.50;;;;;;;9.18;83.92;98997.09;2894212;82;21124;-57
2021/05/07 02:41:01;;;;;;;4.72;3.05;;;;;;;9.19;83.90;98996.92;2894312;82;21097;-58
2021/05/07 02:45:08;;;;;;;3.05;2.75;;;;;;;9.23;83.67;99002.78;2894109;81;21137;-58
2021/05/07 02:49:12;;;;;;;3.95;3.10;;;;;;;9.23;83.71;98995.63;2873612;81;21172;-58
2021/05/07 02:53:15;;;;;;;3.77;2.92;;;;;;;9.24;83.86;98996.01;2858214;82;21108;-58
2021/05/07 02:57:20;;;;;;;4.67;3.02;;;;;;;9.20;83.93;99001.24;2894350;82;21128;-59
2021/05/07 03:01:24;;;;;;;6.35;3.35;;;;;;;9.22;84.15;98998.45;2872635;80;21160;-59
2021/05/07 03:05:27;;;;;;;5.65;3.58;;;;;;;9.28;84.40;99001.35;2881127;81;21197;-60
2021/05/07 03:09:30;;;;;;;5.72;3.92;;;;;;;9.31;84.26;99000.20;2915796;81;21139;-60
2021/05/07 03:13:33;;;;;;;3.83;3.50;;;;;;;9.27;83.90;99004.99;2923527;80;21170;-60
2021/05/07 03:17:37;;;;;;;3.75;3.22;;;;;;;9.22;83.95;99003.77;2901111;82;21538;-60
2021/05/07 03:21:42;;;;;;;5.12;3.87;;;;;;;9.12;83.98;99002.48;2901191;82;21150;-60
2021/05/07 03:25:46;;;;;;;2.80;2.40;;;;;;;9.05;84.18;99014.17;2901003;82;21119;-59
2021/05/07 03:29:50;;;;;;;5.28;3.05;;;;;;;9.00;84.40;99014.61;2901071;82;21139;-60
2021/05/07 03:33:55;;;;;;;4.62;3.65;;;;;;;8.90;84.75;99016.48;2901076;81;21118;-58
2021/05/07 03:37:59;;;;;;;5.08;3.45;;;;;;;8.77;85.36;99014.17;2901123;81;21186;-59
2021/05/07 03:42:02;;;;;;;4.47;3.85;;;;;;;8.74;85.95;99021.58;2901137;82;21111;-60
2021/05/07 03:46:05;;;;;;;6.97;5.85;;;;;;;8.69;86.31;99024.17;2901339;82;21217;-59
2021/05/07 03:50:10;;;;;;;10.43;6.80;;;;;;;8.70;86.76;99035.13;2901331;82;21123;-60
2021/05/07 03:54:17;;;;;;;5.95;5.28;;;;;;;8.70;87.21;99043.55;2901823;82;21154;-59
2021/05/07 03:58:20;;;;;;;7.50;6.10;;;;;;;8.71;87.03;99042.09;2901430;82;21587;-60
2021/05/07 04:02:25;;;;;;;6.87;4.47;;;;;;;8.74;87.55;99039.63;2907498;80;21107;-59
2021/05/07 04:06:30;;;;;;;;;;;;;;;8.79;87.41;99039.20;2871046;82;21172;-58
2021/05/07 04:10:38;;;;;;;11.20;5.20;;;;;;;8.85;87.16;99043.44;2880163;82;20142;-58
2021/05/07 04:14:41;;;;;;;5.45;4.60;;;;;;;8.76;86.89;99046.97;2859490;80;21113;-60
2021/05/07 04:18:46;;;;;;;6.75;4.70;;;;;;;8.74;87.37;99042.78;2865970;82;21736;-59
2021/05/07 04:22:50;;;;;;;7.05;5.45;;;;;;;8.79;87.02;99053.78;2894007;80;21555;-57
2021/05/07 04:26:55;;;;;;;6.90;4.65;;;;;;;8.80;87.34;99058.11;2894341;82;21160;-59
2021/05/07 04:30:58;;;;;;;4.58;4.00;;;;;;;8.92;87.57;99061.41;2894514;81;21583;-59
2021/05/07 04:35:02;;;;;;;6.58;4.85;;;;;;;8.95;86.98;99061.96;2894420;81;21180;-59
2021/05/07 04:39:06;;;;;;;5.90;4.47;;;;;;;8.93;86.91;99055.97;2894393;80;21128;-59
2021/05/07 04:43:09;;;;;;;6.35;4.55;;;;;;;9.02;87.52;99061.38;2886466;81;21586;-59
2021/05/07 04:47:12;;;;;;;5.70;4.65;;;;;;;9.13;87.18;99069.16;2869920;82;21145;-61
2021/05/07 04:51:15;;;;;;;5.08;4.62;;;;;;;9.20;86.41;99067.58;2845061;83;21112;-60
2021/05/07 04:55:18;;;;;;;4.85;4.35;;;;;;;9.28;86.17;99071.67;2883695;81;21564;-60
2021/05/07 04:59:21;;;;;;;7.22;4.40;;;;;;;9.38;85.84;99075.61;2909847;81;21110;-61
2021/05/07 05:03:24;;;;;;;6.30;5.67;;;;;;;9.46;85.56;99080.17;2897576;81;21556;-62
2021/05/07 05:07:27;;;;;;;4.97;4.05;;;;;;;9.42;84.20;99083.61;2895044;82;21180;-60
2021/05/07 05:11:30;;;;;;;5.35;4.50;;;;;;;9.41;84.22;99098.34;2888670;82;21113;-60
2021/05/07 05:15:33;;;;;;;6.37;4.22;;;;;;;9.25;84.51;99109.13;2856217;82;21129;-59
2021/05/07 05:19:36;;;;;;;5.30;4.85;;;;;;;9.21;85.32;99116.19;2857412;82;21107;-61
2021/05/07 05:23:40;;;;;;;5.35;4.87;;;;;;;9.20;85.84;99130.44;2857177;80;21176;-61
2021/05/07 05:27:43;;;;;;;6.60;4.97;;;;;;;9.17;86.33;99130.73;2865523;82;21156;-59
2021/05/07 05:31:46;;;;;;;5.78;5.00;;;;;;;9.15;86.20;99132.19;2894465;81;21539;-62
2021/05/07 05:35:50;;;;;;;5.90;4.03;;;;;;;9.09;86.73;99130.94;2894290;82;21125;-59
2021/05/07 05:39:52;;;;;;;5.53;4.25;;;;;;;9.10;86.59;99131.29;2864432;82;21550;-62
2021/05/07 05:43:57;;;;;;;8.60;4.78;;;;;;;9.13;86.55;99134.16;2843290;82;21148;-60
2021/05/07 05:48:07;;;;;;;5.10;4.67;;;;;;;9.17;86.79;99131.55;2845108;83;21129;-62
2021/05/07 05:52:10;;;;;;;4.92;4.50;;;;;;;9.21;86.32;99136.09;2845060;83;21132;-61
2021/05/07 05:56:13;;;;;;;8.38;5.37;;;;;;;9.24;86.79;99150.38;2845288;82;21124;-60
2021/05/07 06:00:18;;;;;;;5.70;5.12;;;;;;;9.34;87.49;99139.25;2845050;82;21085;-61
2021/05/07 06:04:21;;;;;;;5.70;4.75;;;;;;;9.34;86.91;99149.88;2845204;83;21150;-61
2021/05/07 06:08:24;;;;;;;7.97;5.75;;;;;;;9.27;86.99;99159.38;2844985;83;21129;-63
2021/05/07 06:12:27;;;;;;;8.15;5.62;;;;;;;9.27;87.31;99169.52;2844840;83;21129;-60
2021/05/07 06:16:30;;;;;;;6.20;5.28;;;;;;;9.16;86.65;99174.98;2845409;83;21124;-61
2021/05/07 06:20:33;;;;;;;8.48;5.60;;;;;;;9.11;87.42;99183.36;2844929;82;21129;-61
2021/05/07 06:24:36;;;;;;;5.28;4.33;;;;;;;9.00;87.06;99179.06;2844980;83;21152;-60
2021/05/07 06:28:39;;;;;;;6.40;5.80;;;;;;;8.89;87.11;99183.70;2844872;83;21152;-61
2021/05/07 06:32:42;;;;;;;7.75;5.87;;;;;;;8.82;87.94;99187.40;2845021;83;21108;-62
2021/05/07 06:36:46;;;;;;;6.58;5.92;;;;;;;8.76;87.98;99186.17;2844965;83;21137;-61
2021/05/07 06:40:50;;;;;;;7.65;6.60;;;;;;;8.73;88.18;99184.28;2844836;83;21133;-61
2021/05/07 06:44:53;;;;;;;11.18;8.03;;;;;;;8.70;88.46;99188.05;2844811;83;21097;-61
2021/05/07 06:48:56;;;;;;;12.58;10.60;;;;;;;8.80;88.84;99193.34;2844903;83;21125;-62
2021/05/07 06:52:59;;;;;;;16.97;12.80;;;;;;;8.82;88.39;99191.38;2844852;83;21109;-62
2021/05/07 06:57:04;;;;;;;11.43;7.95;;;;;;;8.93;88.19;99193.89;2844829;83;21156;-62
2021/05/07 07:01:07;;;;;;;9.68;7.28;;;;;;;9.03;88.31;99183.26;2851695;80;21145;-62
2021/05/07 07:05:12;;;;;;;9.53;7.90;;;;;;;9.24;87.57;99178.25;2864026;81;21140;-62
2021/05/07 07:09:15;;;;;;;7.62;5.70;;;;;;;9.40;88.02;99184.26;2873648;82;21097;-62
2021/05/07 07:13:20;;;;;;;7.95;5.42;;;;;;;9.47;87.02;99193.33;2894372;81;21133;-63
2021/05/07 07:17:23;;;;;;;5.72;5.08;;;;;;;9.49;85.22;99203.78;2894111;81;21552;-61
2021/05/07 07:21:26;;;;;;;7.47;5.92;;;;;;;9.50;85.94;99204.98;2844923;83;21148;-62
2021/05/07 07:25:29;;;;;;;7.55;6.58;;;;;;;9.51;85.05;99207.13;2845054;82;21152;-62
2021/05/07 07:29:32;;;;;;;8.40;7.53;;;;;;;9.53;85.93;99216.63;2845358;83;21120;-62
2021/05/07 07:33:35;;;;;;;7.35;6.28;;;;;;;9.59;85.85;99219.20;2844506;82;21112;-61
2021/05/07 07:37:39;;;;;;;8.38;6.95;;;;;;;9.57;84.99;99225.97;2845134;83;21191;-61
2021/05/07 07:41:43;;;;;;;8.45;7.50;;;;;;;9.61;85.60;99220.37;2845295;83;21117;-62
2021/05/07 07:45:53;;;;;;;10.13;7.78;;;;;;;9.58;84.45;99223.66;2845216;83;21125;-62
2021/05/07 07:49:56;;;;;;;12.78;9.90;;;;;;;9.60;84.96;99218.70;2845032;83;21112;-61
2021/05/07 07:53:59;;;;;;;18.95;10.38;;;;;;;9.63;85.60;99225.03;2845164;83;21132;-60
2021/05/07 07:58:04;;;;;;;10.72;6.37;;;;;;;9.68;85.12;99228.11;2853202;82;21129;-61
2021/05/07 08:02:07;;;;;;;15.40;11.38;;;;;;;9.72;84.19;99230.81;2856074;82;21156;-61
2021/05/07 08:06:10;;;;;;;8.83;5.87;;;;;;;9.75;84.54;99234.50;2894126;81;21148;-61
2021/05/07 08:10:16;;;;;;;7.03;6.10;;;;;;;9.72;84.51;99238.27;2888427;80;21116;-61
2021/05/07 08:14:19;;;;;;;7.10;5.37;;;;;;;9.71;85.26;99236.60;2882690;82;21073;-62
2021/05/07 08:18:23;;;;;;;6.33;5.72;;;;;;;9.75;84.74;99239.81;2845237;83;21128;-61
2021/05/07 08:22:27;;;;;;;10.58;7.87;;;;;;;9.80;84.27;99244.70;2853900;82;21164;-62
2021/05/07 08:26:30;;;;;;;10.48;6.92;;;;;;;9.80;84.58;99249.50;2880259;82;21145;-61
2021/05/07 08:30:33;;;;;;;7.53;5.65;;;;;;;9.82;84.05;99259.98;2891749;80;21136;-62
2021/05/07 08:34:36;;;;;;;5.15;4.65;;;;;;;9.81;84.26;99263.63;2886809;82;21085;-63
2021/05/07 08:38:39;;;;;;;9.28;6.42;;;;;;;9.77;83.95;99268.89;2867107;80;21113;-62
2021/05/07 08:42:43;;;;;;;5.87;5.22;;;;;;;9.76;84.57;99276.01;2881309;82;21093;-62
2021/05/07 08:46:47;;;;;;;6.85;4.95;;;;;;;9.64;84.01;99281.99;2870358;80;21128;-61
2021/05/07 08:50:53;;;;;;;5.67;5.05;;;;;;;9.57;84.03;99288.36;2846537;80;21148;-62
2021/05/07 08:55:18;;;;;;;6.13;4.83;;;;;;;9.64;83.29;99293.13;2890847;81;21570;-62
2021/05/07 08:59:22;;;;;;;7.80;6.67;;;;;;;9.71;84.62;99299.01;2638373;90;21664;-62
2021/05/07 09:03:29;;;;;;;6.28;5.28;;;;;;;9.77;84.35;99309.55;2669048;89;21201;-64
2021/05/07 09:07:33;;;;;;;6.97;4.70;;;;;;;9.77;83.00;99318.84;2667410;89;21152;-61
2021/05/07 09:11:41;;;;;;;10.10;5.40;;;;;;;9.75;83.10;99319.48;2668594;89;21165;-61
2021/05/07 09:15:48;;;;;;;4.90;4.00;;;;;;;9.71;83.02;99323.41;2669253;89;21179;-62
2021/05/07 09:20:12;;;;;;;9.60;5.95;;;;;;;9.63;82.81;99322.80;2665593;89;21580;-63
2021/05/07 09:24:17;;;;;;;6.53;4.05;;;;;;;9.70;83.89;99323.89;2668124;89;21175;-62
2021/05/07 09:28:20;;;;;;;7.35;4.05;;;;;;;9.85;83.95;99321.64;2666364;89;21161;-62
2021/05/07 09:32:34;;;;;;;5.08;4.17;;;;;;;10.06;83.55;99322.38;2668207;89;21213;-62
2021/05/07 09:36:37;;;;;;;5.70;3.90;;;;;;;10.26;82.00;99333.27;2663019;89;21213;-61
2021/05/07 09:40:42;;;;;;;5.55;4.83;;;;;;;10.41;80.75;99345.60;2660410;89;21210;-61
2021/05/07 09:44:45;;;;;;;4.62;4.22;;;;;;;10.42;80.12;99356.61;2664785;89;21226;-62
2021/05/07 09:48:48;;;;;;;6.30;5.17;;;;;;;10.43;79.64;99362.27;2666673;89;21198;-62
2021/05/07 09:52:52;;;;;;;7.17;4.97;;;;;;;10.34;80.02;99365.77;2667378;89;21157;-63
2021/05/07 09:56:58;;;;;;;10.00;6.10;;;;;;;10.31;80.24;99371.38;2660856;89;21218;-62
2021/05/07 10:01:01;;;;;;;7.10;5.30;;;;;;;10.22;80.47;99381.55;2653084;89;21158;-64
2021/05/07 10:05:06;;;;;;;11.50;8.35;;;;;;;10.17;81.03;99371.84;2653011;89;21166;-62
2021/05/07 10:09:11;;;;;;;5.22;4.78;;;;;;;10.21;80.61;99368.77;2652993;89;21174;-62
2021/05/07 10:13:19;;;;;;;5.28;4.65;;;;;;;10.32;80.94;99373.05;2653196;89;21163;-63
2021/05/07 10:17:22;;;;;;;5.90;5.35;;;;;;;10.45;81.33;99369.27;2654472;89;21242;-63
2021/05/07 10:21:38;;;;;;;2.90;2.42;;;;;;;10.64;80.37;99372.30;2653471;89;21671;-62
2021/05/07 10:26:08;;;;;;;4.58;3.70;;;;;;;10.65;78.93;99368.17;2661387;89;21213;-62
2021/05/07 10:30:26;;;;;;;4.12;3.27;;;;;;;10.73;78.58;99366.58;2661156;89;21142;-62
2021/05/07 10:34:29;;;;;;;8.00;4.35;;;;;;;10.72;78.10;99372.41;2658415;89;21190;-61
2021/05/07 10:38:34;;;;;;;3.52;3.22;;;;;;;10.69;79.06;99376.19;2661506;89;21149;-62
2021/05/07 10:42:37;;;;;;;3.90;3.27;;;;;;;10.78;79.21;99365.62;2661186;89;21233;-63
2021/05/07 10:46:45;;;;;;;3.30;2.90;;;;;;;10.85;79.17;99374.70;2660564;89;21162;-63
2021/05/07 10:50:53;;;;;;;6.55;5.90;;;;;;;10.90;77.99;99373.75;2655187;89;21747;-62
2021/05/07 10:55:01;;;;;;;5.47;4.92;;;;;;;10.86;78.74;99370.54;2654531;89;21138;-62
2021/05/07 10:59:18;;;;;;;8.05;7.25;;;;;;;10.85;78.81;99375.52;2615602;89;21199;-62
2021/05/07 11:03:22;;;;;;;6.90;6.20;;;;;;;10.89;78.23;99377.40;2614219;90;21175;-60
2021/05/07 11:07:29;;;;;;;7.08;6.37;;;;;;;10.94;77.46;99379.11;2616782;90;21158;-62
2021/05/07 11:11:42;;;;;;;7.12;5.97;;;;;;;10.98;76.63;99380.47;3054518;77;22822;-60
2021/05/07 11:15:59;;;;;;;6.72;6.03;;;;;;;11.19;78.52;99388.66;3009007;78;21527;-61
2021/05/07 11:20:02;;;;;;;4.62;4.22;;;;;;;11.52;77.96;99390.80;3002355;78;21105;-61
2021/05/07 11:24:15;;;;;;;6.25;5.60;;;;;;;11.52;74.74;99389.47;2930486;80;21130;-63
2021/05/07 11:28:21;;;;;;;6.90;6.25;;;;;;;11.45;73.42;99399.04;2934562;80;21544;-60
2021/05/07 11:32:25;;;;;;;5.62;5.12;;;;;;;11.47;75.48;99396.58;2907578;80;21113;-62
2021/05/07 11:36:28;;;;;;;8.08;6.65;;;;;;;11.39;74.36;99397.34;2905505;81;21523;-62
2021/05/07 11:40:41;;;;;;;7.20;6.50;;;;;;;11.32;75.59;99404.27;2896443;81;21105;-62
2021/05/07 11:44:48;;;;;;;6.92;6.22;;;;;;;11.23;77.18;99411.34;2893165;81;21125;-62
2021/05/07 11:48:52;;;;;;;9.05;7.72;;;;;;;11.13;78.75;99404.77;2906933;81;21121;-61
2021/05/07 11:52:57;;;;;;;4.27;3.87;;;;;;;11.42;81.17;99389.03;2916181;80;21153;-61
2021/05/07 11:57:00;;;;;;;3.98;3.67;;;;;;;11.81;76.66;99383.86;2948109;80;21154;-62
2021/05/07 12:01:07;;;;;;;5.95;4.28;;;;;;;12.03;75.94;99391.02;2909943;81;21597;-62
2021/05/07 12:05:32;;;;;;;10.75;8.50;;;;;;;12.17;75.67;99384.74;2901070;81;21146;-62
2021/05/07 12:09:35;;;;;;;9.28;5.25;;;;;;;12.34;75.14;99382.50;2648818;89;21231;-62
2021/05/07 12:13:39;;;;;;;7.20;5.78;;;;;;;12.92;76.95;99376.55;2646590;90;21201;-62
2021/05/07 12:17:45;;;;;;;7.83;6.00;;;;;;;13.35;74.58;99373.26;2646543;90;21201;-62
2021/05/07 12:21:48;;;;;;;5.40;4.90;;;;;;;13.32;71.19;99378.09;2646074;90;21205;-61
2021/05/07 12:25:52;;;;;;;6.62;5.92;;;;;;;13.25;69.18;99376.09;2644376;88;21142;-62
2021/05/07 12:29:56;;;;;;;3.47;3.10;;;;;;;13.14;69.17;99377.73;2620149;88;21616;-63
2021/05/07 12:34:03;;;;;;;1.82;1.50;;;;;;;12.90;68.62;99355.34;2621914;88;21142;-62
2021/05/07 12:38:27;;;;;;;3.58;1.30;;;;;;;12.18;66.79;99401.92;2618344;88;21183;-63
2021/05/07 12:42:30;;;;;;;1.80;1.70;;;;;;;11.81;68.74;99405.65;2641734;90;21180;-62
2021/05/07 12:46:34;;;;;;;2.95;2.37;;;;;;;11.68;66.90;99416.72;2645572;90;21219;-63
2021/05/07 12:50:37;;;;;;;11.20;3.08;;;;;;;11.98;70.07;99423.43;2645834;90;21192;-63
2021/05/07 12:54:40;;;;;;;4.28;3.30;;;;;;;12.41;66.30;99426.22;2634800;88;21166;-61
2021/05/07 12:58:45;;;;;;;2.35;2.15;;;;;;;12.26;68.02;99438.47;2627459;88;21178;-62
2021/05/07 13:02:48;;;;;;;3.47;2.83;;;;;;;11.60;72.00;99451.29;2605594;90;21141;-60
2021/05/07 13:06:51;;;;;;;3.15;2.40;;;;;;;11.02;75.58;99465.36;2650601;87;21133;-60
2021/05/07 13:10:54;;;;;;;4.92;4.35;;;;;;;10.87;77.52;99468.50;2658888;88;21672;-59
2021/05/07 13:14:57;;;;;;;4.83;3.65;;;;;;;11.16;77.23;99460.83;2647701;89;21143;-60
2021/05/07 13:19:00;;;;;;;4.62;3.00;;;;;;;11.50;74.98;99489.98;2651619;88;21213;-61
2021/05/07 13:23:04;;;;;;;3.65;3.45;;;;;;;11.42;68.98;99478.75;2679694;88;21211;-59
2021/05/07 13:27:07;;;;;;;2.85;2.58;;;;;;;11.40;70.99;99483.39;2647527;90;21218;-59
2021/05/07 13:31:11;;;;;;;3.67;3.10;;;;;;;11.62;70.29;99488.75;2647448;90;21198;-58
2021/05/07 13:35:15;;;;;;;2.35;2.15;;;;;;;11.50;67.75;99466.84;2647203;90;21138;-58
2021/05/07 13:39:18;;;;;;;3.15;2.85;;;;;;;11.70;70.50;99511.97;2647443;90;21620;-61
2021/05/07 13:43:25;;;;;;;2.95;2.65;;;;;;;11.67;70.02;99542.91;2647585;89;21202;-58
2021/05/07 13:47:30;;;;;;;2.60;2.30;;;;;;;11.45;71.14;99549.02;2652879;88;21621;-59
2021/05/07 13:51:33;;;;;;;2.92;1.60;;;;;;;11.40;70.73;99552.63;2656017;88;21640;-60
2021/05/07 13:55:36;;;;;;;1.10;0.82;;;;;;;11.37;67.67;99543.58;2668946;88;21226;-60
2021/05/07 13:59:39;;;;;;;1.60;0.90;;;;;;;11.09;67.54;99535.11;2677023;88;21154;-60
2021/05/07 14:03:42;;;;;;;1.75;0.70;;;;;;;10.66;66.90;99542.72;2681654;88;21182;-60
2021/05/07 14:07:49;;;;;;;2.80;1.47;;;;;;;10.29;68.67;99573.53;2686438;87;21170;-61
2021/05/07 14:11:52;;;;;;;0.60;0.50;;;;;;;9.84;69.36;99613.48;2676333;88;21229;-60
2021/05/07 14:15:55;;;;;;;2.12;1.30;;;;;;;9.78;69.81;99613.19;2670412;88;21178;-60
2021/05/07 14:19:58;;;;;;;1.07;0.42;;;;;;;9.87;70.51;99625.63;2655793;89;21130;-60
2021/05/07 14:24:06;;;;;;;1.40;0.50;;;;;;;9.83;69.90;99625.08;2655808;89;21165;-60
2021/05/07 14:28:08;;;;;;;1.57;0.65;;;;;;;10.18;70.94;99626.00;2655779;89;21615;-60
2021/05/07 14:32:11;;;;;;;1.45;0.47;;;;;;;10.25;67.34;99584.61;2655710;89;21174;-60
2021/05/07 14:36:15;;;;;;;2.25;0.90;;;;;;;10.04;68.07;99630.77;2655816;89;21553;-60
2021/05/07 14:40:18;;;;;;;1.32;0.85;;;;;;;9.91;68.58;99656.75;2655840;89;21213;-59
2021/05/07 14:44:22;;;;;;;1.20;1.00;;;;;;;9.88;68.88;99662.34;2668882;88;21707;-60
2021/05/07 14:48:26;;;;;;;1.57;0.70;;;;;;;9.76;69.02;99658.96;2672632;88;21138;-60
2021/05/07 14:52:29;;;;;;;1.42;0.95;;;;;;;9.80;70.29;99674.47;2677456;88;21248;-61
2021/05/07 14:56:32;;;;;;;0.70;0.60;;;;;;;9.90;68.80;99687.77;2671961;88;21189;-60
2021/05/07 15:00:36;;;;;;;1.72;0.70;;;;;;;9.96;66.99;99697.02;2676173;88;21598;-60
2021/05/07 15:04:39;;;;;;;1.62;1.10;;;;;;;9.98;66.63;99705.70;2677162;88;21168;-60
2021/05/07 15:08:42;;;;;;;0.62;0.60;;;;;;;9.78;65.70;99684.39;2670122;88;21612;-60
2021/05/07 15:12:45;;;;;;;1.35;1.12;;;;;;;9.61;66.60;99719.55;2689790;86;21217;-59
2021/05/07 15:16:48;;;;;;;2.92;2.25;;;;;;;9.64;68.71;99733.92;2682415;88;21656;-60
2021/05/07 15:20:54;;;;;;;2.70;1.50;;;;;;;9.61;69.48;99734.16;2694247;88;21162;-60
2021/05/07 15:24:57;;;;;;;1.07;0.95;;;;;;;9.55;69.84;99749.66;2696849;88;21170;-60
2021/05/07 15:29:01;;;;;;;2.50;1.82;;;;;;;9.42;68.45;99755.66;2680834;88;21161;-60
2021/05/07 15:33:06;;;;;;;1.30;0.85;;;;;;;9.34;68.46;99766.95;2666396;88;21184;-60
2021/05/07 15:37:09;;;;;;;1.62;1.07;;;;;;;9.26;68.76;99767.61;2661340;88;21174;-61
2021/05/07 15:41:12;;;;;;;2.10;0.80;;;;;;;9.27;68.67;99775.92;2673358;88;21157;-60
2021/05/07 15:45:16;;;;;;;2.67;1.72;;;;;;;9.25;68.97;99783.17;2697508;88;21158;-60
2021/05/07 15:49:20;;;;;;;5.37;3.42;;;;;;;9.20;69.86;99785.35;2683054;88;21155;-59
2021/05/07 15:53:28;;;;;;;7.33;2.45;;;;;;;9.26;70.42;99798.13;2674233;88;21196;-60
2021/05/07 15:57:35;;;;;;;1.65;1.55;;;;;;;9.26;69.82;99792.81;2685219;87;21178;-61
2021/05/07 16:01:39;;;;;;;9.35;7.42;;;;;;;9.31;69.92;99787.09;2692674;87;21158;-61
2021/05/07 16:05:43;;;;;;;2.67;2.47;;;;;;;9.50;70.75;99794.83;2688084;87;21150;-64
2021/05/07 16:09:50;;;;;;;;;;;;;;;9.77;69.34;99808.88;2715122;87;21541;-62
2021/05/07 16:14:26;;;;;;;4.25;3.22;;;;;;;9.88;67.26;99808.45;2710112;87;20198;-63
2021/05/07 16:18:30;;;;;;;8.10;4.75;;;;;;;9.92;66.68;99817.83;2698920;87;21137;-62
2021/05/07 16:23:11;;;;;;;2.42;2.15;;;;;;;10.04;67.25;99826.08;2701952;87;21195;-64
2021/05/07 16:27:15;;;;;;;3.60;2.35;;;;;;;10.10;67.12;99829.52;2703401;87;21189;-63
2021/05/07 16:31:52;;;;;;;2.25;2.05;;;;;;;10.11;66.25;99842.30;2704949;87;21201;-64
2021/05/07 16:35:56;;;;;;;2.47;2.20;;;;;;;10.17;66.76;99848.91;2704806;87;21123;-63
2021/05/07 16:39:59;;;;;;;2.67;2.12;;;;;;;10.27;67.12;99856.45;2713594;87;21177;-64
2021/05/07 16:44:37;;;;;;;4.35;3.75;;;;;;;10.23;65.84;99857.69;2695209;87;21156;-65
2021/05/07 16:48:43;;;;;;;5.67;4.62;;;;;;;10.17;65.38;99859.53;2702109;87;21193;-64
2021/05/07 16:53:19;;;;;;;2.60;2.40;;;;;;;10.25;65.31;99875.17;2702907;87;21189;-64
2021/05/07 16:57:22;;;;;;;2.98;2.58;;;;;;;10.26;65.73;99868.88;2712437;87;21174;-64
2021/05/07 17:01:25;;;;;;;6.28;3.25;;;;;;;10.33;66.36;99862.54;2725090;87;21169;-63
2021/05/07 17:05:31;;;;;;;9.00;4.12;;;;;;;10.32;65.59;99867.51;2725330;87;21153;-64
2021/05/07 17:09:33;;;;;;;3.47;3.10;;;;;;;10.29;65.11;99866.45;2683164;87;21164;-64
2021/05/07 17:13:36;;;;;;;4.85;3.33;;;;;;;10.19;64.78;99848.28;2692696;87;21173;-63
2021/05/07 17:17:44;;;;;;;8.38;7.17;;;;;;;10.10;65.31;99863.20;2715097;87;21648;-63
2021/05/07 17:21:47;;;;;;;5.10;4.03;;;;;;;9.98;64.73;99869.95;2694285;87;21169;-63
2021/05/07 17:25:51;;;;;;;10.93;6.28;;;;;;;9.77;65.25;99877.94;2709250;87;21649;-63
2021/05/07 17:29:54;;;;;;;4.75;3.27;;;;;;;9.56;65.88;99878.78;2714028;87;21206;-63
2021/05/07 17:33:57;;;;;;;3.65;2.85;;;;;;;9.38;67.19;99886.97;2703135;87;21170;-63
2021/05/07 17:38:01;;;;;;;8.03;4.50;;;;;;;9.16;68.60;99885.27;2705224;87;21157;-62
2021/05/07 17:42:04;;;;;;;4.60;3.20;;;;;;;8.93;69.58;99892.81;2695153;87;21722;-62
2021/05/07 17:46:08;;;;;;;8.70;6.35;;;;;;;8.69;70.58;99904.91;2703991;86;21520;-62
2021/05/07 17:50:15;;;;;;;5.00;4.42;;;;;;;8.50;71.31;99902.89;2690919;86;22359;-62
2021/05/07 17:54:19;;;;;;;7.00;4.37;;;;;;;8.35;72.26;99913.70;2676439;86;21184;-62
2021/05/07 17:58:22;;;;;;;8.15;5.22;;;;;;;8.18;73.24;99928.75;2683485;86;21192;-62
2021/05/07 18:02:25;;;;;;;4.60;4.00;;;;;;;8.04;74.33;99945.22;2696366;86;21172;-63
2021/05/07 18:06:29;;;;;;;4.78;4.28;;;;;;;7.96;75.20;99955.58;2690643;86;21195;-61
2021/05/07 18:10:33;;;;;;;7.87;4.83;;;;;;;7.84;76.81;99968.77;2724541;84;21207;-62
2021/05/07 18:14:36;;;;;;;2.52;1.85;;;;;;;7.71;78.41;100008.58;2754642;84;21763;-63
2021/05/07 18:18:41;;;;;;;1.20;0.90;;;;;;;7.76;76.05;100012.21;2725940;84;21217;-62
2021/05/07 18:22:47;;;;;;;1.35;1.02;;;;;;;7.72;74.89;100029.29;2732731;84;21181;-62
2021/05/07 18:26:51;;;;;;;1.27;0.90;;;;;;;7.51;76.28;100030.37;2738918;84;21220;-62
2021/05/07 18:30:58;;;;;;;2.87;1.20;;;;;;;7.31;77.26;100031.84;2732549;84;21182;-61
2021/05/07 18:35:02;;;;;;;2.10;0.95;;;;;;;7.20;77.24;100021.55;2748035;84;21621;-62
2021/05/07 18:39:05;;;;;;;2.15;1.95;;;;;;;7.28;75.94;100032.91;2737814;84;21201;-62
2021/05/07 18:43:08;;;;;;;2.30;1.67;;;;;;;7.31;75.51;100041.11;2714223;87;21725;-61
2021/05/07 18:47:12;;;;;;;1.45;1.30;;;;;;;7.28;75.93;100046.99;2714425;87;21212;-61
2021/05/07 18:51:15;;;;;;;2.27;1.67;;;;;;;7.24;77.24;100050.79;2723049;84;21189;-61
2021/05/07 18:55:18;;;;;;;2.50;1.62;;;;;;;7.16;78.63;100066.38;2739103;86;21611;-61
2021/05/07 18:59:25;;;;;;;4.97;2.72;;;;;;;7.11;78.97;100071.16;2728662;84;21169;-62
2021/05/07 19:03:29;;;;;;;5.97;3.65;;;;;;;6.99;77.93;100065.77;2743104;86;21642;-61
2021/05/07 19:07:31;;;;;;;6.85;5.12;;;;;;;7.02;77.68;100083.23;2721026;86;21177;-61
2021/05/07 19:11:35;;;;;;;7.60;5.08;;;;;;;7.06;77.79;100094.42;2759215;85;21185;-61
2021/05/07 19:15:39;;;;;;;10.72;5.53;;;;;;;7.09;77.87;100113.57;2752378;84;21196;-61
2021/05/07 19:19:42;;;;;;;5.97;4.05;;;;;;;7.10;78.10;100125.02;2723056;86;21165;-61